createdAt,value
2022-10-31T00:01:29.455Z,95637.81
2022-10-31T00:03:58.541Z,95624.19
2022-10-31T00:06:27.102Z,95632.47
2022-10-31T00:08:56.521Z,95634.16
2022-10-31T00:11:24.452Z,95646.31
2022-10-31T00:13:52.314Z,95656.09
2022-10-31T00:16:22.486Z,95658.38
2022-10-31T00:18:51.393Z,95661.34
2022-10-31T00:21:20.976Z,95650.59
2022-10-31T00:23:48.885Z,95651.44
2022-10-31T00:26:16.934Z,95655.81
2022-10-31T00:28:44.904Z,95651.63
2022-10-31T00:31:13.894Z,95664.31
2022-10-31T00:33:42.465Z,95650.03
2022-10-31T00:36:17.400Z,95647.25
2022-10-31T00:38:47.741Z,95650.78
2022-10-31T00:41:17.808Z,95645.63
2022-10-31T00:43:45.846Z,95652.94
2022-10-31T00:46:15.052Z,95653.94
2022-10-31T00:48:42.971Z,95652.38
2022-10-31T00:51:11.495Z,95650.66
2022-10-31T00:53:41.043Z,95652.19
2022-10-31T00:56:10.318Z,95652.63
2022-10-31T00:58:38.161Z,95652.22
2022-10-31T01:01:06.694Z,95648.81
2022-10-31T01:03:36.420Z,95653.94
2022-10-31T01:06:07.400Z,95648.22
2022-10-31T01:08:35.480Z,95647.28
2022-10-31T01:11:07.427Z,95638.16
2022-10-31T01:13:37.164Z,95641.72
2022-10-31T01:16:07.165Z,95639.38
2022-10-31T01:18:35.981Z,95638.16
2022-10-31T01:21:05.565Z,95645.69
2022-10-31T01:23:33.505Z,95640.75
2022-10-31T01:26:06.700Z,95642.31
2022-10-31T01:28:36.737Z,95646.03
2022-10-31T01:31:06.721Z,95647.66
2022-10-31T01:33:36.094Z,95647.47
2022-10-31T01:36:13.249Z,95642.03
2022-10-31T01:38:41.354Z,95640.44
2022-10-31T01:41:10.838Z,95643.78
2022-10-31T01:43:50.482Z,95651.06
2022-10-31T01:46:22.424Z,95647.72
2022-10-31T01:48:50.694Z,95640.50
2022-10-31T01:51:22.625Z,95638.25
2022-10-31T01:53:52.853Z,95638.88
2022-10-31T01:56:20.963Z,95645.13
2022-10-31T01:58:50.129Z,95644.22
2022-10-31T02:01:19.870Z,95631.94
2022-10-31T02:03:49.391Z,95636.81
2022-10-31T02:06:27.769Z,95642.41
2022-10-31T02:08:56.505Z,95652.75
2022-10-31T02:11:24.718Z,95649.28
2022-10-31T02:13:56.409Z,95643.78
2022-10-31T02:16:24.533Z,95642.97
2022-10-31T02:18:54.218Z,95645.19
2022-10-31T02:21:30.257Z,95640.97
2022-10-31T02:24:19.586Z,95637.72
2022-10-31T02:26:56.824Z,95638.56
2022-10-31T02:30:05.213Z,95639.56
2022-10-31T02:32:45.435Z,95636.44
2022-10-31T02:35:19.392Z,95630.53
2022-10-31T02:37:59.740Z,95629.91
2022-10-31T02:40:31.217Z,95632.66
2022-10-31T02:43:29.361Z,95624.03
2022-10-31T02:46:04.027Z,95631.91
2022-10-31T02:48:39.175Z,95634.28
2022-10-31T02:51:07.848Z,95650.03
2022-10-31T02:53:38.800Z,95645.09
2022-10-31T02:56:14.030Z,95625.72
2022-10-31T02:58:46.472Z,95644.16
2022-10-31T03:01:39.656Z,95645.16
2022-10-31T03:04:41.032Z,95642.41
2022-10-31T03:07:19.050Z,95642.16
2022-10-31T03:09:57.328Z,95645.78
2022-10-31T03:12:31.656Z,95643.56
2022-10-31T03:15:12.179Z,95637.34
2022-10-31T03:17:50.655Z,95638.41
2022-10-31T03:20:26.171Z,95638.03
2022-10-31T03:22:54.845Z,95641.34
2022-10-31T03:25:24.642Z,95647.22
2022-10-31T03:27:59.582Z,95629.03
2022-10-31T03:30:27.714Z,95633.31
2022-10-31T03:33:01.392Z,95638.13
2022-10-31T03:35:34.818Z,95631.88
2022-10-31T03:38:07.609Z,95629.06
2022-10-31T03:40:37.916Z,95640.84
2022-10-31T03:43:09.972Z,95637.53
2022-10-31T03:45:42.806Z,95632.59
2022-10-31T03:48:10.858Z,95634.53
2022-10-31T03:50:45.815Z,95639.34
2022-10-31T03:53:18.208Z,95636.81
2022-10-31T03:55:53.352Z,95640.50
2022-10-31T03:58:25.650Z,95640.75
2022-10-31T04:00:57.696Z,95642.94
2022-10-31T04:03:28.498Z,95638.69
2022-10-31T04:06:06.537Z,95639.16
2022-10-31T04:08:39.357Z,95636.63
2022-10-31T04:11:10.469Z,95637.56
2022-10-31T04:13:43.594Z,95635.66
2022-10-31T04:16:17.567Z,95634.94
2022-10-31T04:18:46.170Z,95627.59
2022-10-31T04:21:17.985Z,95635.66
2022-10-31T04:23:45.853Z,95635.56
2022-10-31T04:26:22.406Z,95642.13
2022-10-31T04:28:50.293Z,95644.78
2022-10-31T04:31:19.033Z,95643.75
2022-10-31T04:33:49.312Z,95645.28
2022-10-31T04:36:18.458Z,95646.38
2022-10-31T04:38:46.326Z,95647.00
2022-10-31T04:41:26.927Z,95648.53
2022-10-31T04:43:59.999Z,95650.94
2022-10-31T04:46:29.020Z,95640.09
2022-10-31T04:48:58.589Z,95637.03
2022-10-31T04:51:27.669Z,95640.28
2022-10-31T04:53:56.486Z,95638.84
2022-10-31T04:56:36.294Z,95642.78
2022-10-31T04:59:11.275Z,95643.69
2022-10-31T05:01:55.395Z,95640.53
2022-10-31T05:04:38.714Z,95643.97
2022-10-31T05:07:36.667Z,95646.19
2022-10-31T05:10:04.602Z,95653.50
2022-10-31T05:12:32.790Z,95640.72
2022-10-31T05:15:25.340Z,95637.72
2022-10-31T05:18:12.030Z,95637.81
2022-10-31T05:20:58.396Z,95640.00
2022-10-31T05:23:48.659Z,95634.72
2022-10-31T05:26:17.073Z,95638.75
2022-10-31T05:28:46.301Z,95640.34
2022-10-31T05:31:14.040Z,95626.50
2022-10-31T05:33:43.419Z,95626.63
2022-10-31T05:36:29.879Z,95646.22
2022-10-31T05:39:01.496Z,95622.66
2022-10-31T05:41:35.281Z,95629.56
2022-10-31T05:44:23.935Z,95632.19
2022-10-31T05:46:58.723Z,95625.41
2022-10-31T05:50:06.747Z,95625.03
2022-10-31T05:52:49.201Z,95617.38
2022-10-31T05:55:27.352Z,95619.22
2022-10-31T05:58:04.757Z,95625.41
2022-10-31T06:00:35.955Z,95615.81
2022-10-31T06:03:10.644Z,95620.50
2022-10-31T06:06:04.416Z,95620.94
2022-10-31T06:08:37.459Z,95619.16
2022-10-31T06:11:15.051Z,95621.97
2022-10-31T06:14:01.487Z,95621.97
2022-10-31T06:16:39.598Z,95632.44
2022-10-31T06:19:30.070Z,95630.13
2022-10-31T06:21:57.844Z,95624.88
2022-10-31T06:24:25.702Z,95631.84
2022-10-31T06:27:03.886Z,95640.56
2022-10-31T06:29:32.247Z,95633.72
2022-10-31T06:32:08.159Z,95634.38
2022-10-31T06:34:40.809Z,95635.78
2022-10-31T06:37:10.097Z,95634.25
2022-10-31T06:39:39.298Z,95627.81
2022-10-31T06:42:08.777Z,95634.50
2022-10-31T06:44:36.753Z,95630.22
2022-10-31T06:47:23.853Z,95636.53
2022-10-31T06:49:59.104Z,95637.59
2022-10-31T06:52:27.661Z,95627.38
2022-10-31T06:54:55.443Z,95631.59
2022-10-31T06:57:25.876Z,95623.09
2022-10-31T06:59:53.731Z,95638.72
2022-10-31T07:02:31.024Z,95643.06
2022-10-31T07:04:58.987Z,95639.81
2022-10-31T07:07:26.762Z,95634.53
2022-10-31T07:09:57.670Z,95632.41
2022-10-31T07:12:42.910Z,95634.75
2022-10-31T07:15:11.265Z,95632.56
2022-10-31T07:17:39.253Z,95627.47
2022-10-31T07:20:10.565Z,95633.16
2022-10-31T07:22:39.212Z,95628.44
2022-10-31T07:25:10.516Z,95635.56
2022-10-31T07:28:00.291Z,95627.47
2022-10-31T07:30:28.448Z,95635.00
2022-10-31T07:32:57.981Z,95640.16
2022-10-31T07:35:35.781Z,95635.59
2022-10-31T07:38:10.307Z,95643.31
2022-10-31T07:40:39.626Z,95639.94
2022-10-31T07:43:14.059Z,95647.28
2022-10-31T07:46:04.713Z,95646.91
2022-10-31T07:48:50.828Z,95640.50
2022-10-31T07:51:57.328Z,95643.81
2022-10-31T07:54:43.680Z,95638.66
2022-10-31T07:57:11.487Z,95639.16
2022-10-31T07:59:41.453Z,95638.09
2022-10-31T08:02:10.031Z,95642.03
2022-10-31T08:05:02.763Z,95634.50
2022-10-31T08:07:31.296Z,95626.69
2022-10-31T08:10:06.758Z,95631.78
2022-10-31T08:12:36.021Z,95626.69
2022-10-31T08:15:08.133Z,95623.47
2022-10-31T08:17:37.202Z,95611.41
2022-10-31T08:20:05.657Z,95613.72
2022-10-31T08:22:42.776Z,95618.66
2022-10-31T08:25:11.982Z,95616.56
2022-10-31T08:27:40.575Z,95620.31
2022-10-31T08:30:17.663Z,95619.97
2022-10-31T08:33:02.024Z,95621.28
2022-10-31T08:35:48.571Z,95617.84
2022-10-31T08:38:34.888Z,95603.91
2022-10-31T08:41:02.756Z,95607.09
2022-10-31T08:43:30.525Z,95599.47
2022-10-31T08:45:59.635Z,95602.09
2022-10-31T08:48:30.313Z,95602.03
2022-10-31T08:50:58.990Z,95596.91
2022-10-31T08:53:28.158Z,95586.84
2022-10-31T08:56:14.631Z,95580.78
2022-10-31T08:58:42.932Z,95580.19
2022-10-31T09:01:13.358Z,95579.19
2022-10-31T09:03:41.450Z,95585.78
2022-10-31T09:06:10.024Z,95568.44
2022-10-31T09:08:38.978Z,95579.44
2022-10-31T09:11:08.307Z,95585.41
2022-10-31T09:14:02.164Z,95575.72
2022-10-31T09:16:54.650Z,95578.19
2022-10-31T09:19:28.109Z,95576.38
2022-10-31T09:21:56.698Z,95574.59
2022-10-31T09:24:24.619Z,95571.78
2022-10-31T09:26:53.788Z,95570.09
2022-10-31T09:29:28.204Z,95572.34
2022-10-31T09:32:01.528Z,95575.84
2022-10-31T09:34:30.942Z,95572.69
2022-10-31T09:37:04.649Z,95561.19
2022-10-31T09:39:35.274Z,95563.91
2022-10-31T09:42:26.683Z,95552.38
2022-10-31T09:45:06.176Z,95549.81
2022-10-31T09:47:51.677Z,95558.69
2022-10-31T09:50:38.620Z,95548.34
2022-10-31T09:53:32.940Z,95551.13
2022-10-31T09:56:01.906Z,95551.97
2022-10-31T09:58:36.722Z,95545.44
2022-10-31T10:01:07.635Z,95545.25
2022-10-31T10:03:41.625Z,95552.97
2022-10-31T10:06:31.788Z,95543.97
2022-10-31T10:09:32.086Z,95540.31
2022-10-31T10:12:40.009Z,95546.84
2022-10-31T10:15:29.883Z,95547.66
2022-10-31T10:18:06.669Z,95552.41
2022-10-31T10:20:42.627Z,95549.78
2022-10-31T10:23:31.910Z,95550.00
2022-10-31T10:26:08.766Z,95535.69
2022-10-31T10:28:42.662Z,95537.03
2022-10-31T10:31:16.146Z,95529.97
2022-10-31T10:33:49.742Z,95538.91
2022-10-31T10:36:24.917Z,95540.00
2022-10-31T10:38:56.216Z,95525.34
2022-10-31T10:41:27.438Z,95531.94
2022-10-31T10:43:58.442Z,95523.19
2022-10-31T10:46:51.826Z,95521.72
2022-10-31T10:49:21.320Z,95524.22
2022-10-31T10:52:13.232Z,95519.38
2022-10-31T10:54:56.525Z,95519.19
2022-10-31T10:57:34.676Z,95509.59
2022-10-31T11:00:19.129Z,95508.66
2022-10-31T11:02:48.970Z,95495.19
2022-10-31T11:05:25.737Z,95502.94
2022-10-31T11:07:54.949Z,95497.31
2022-10-31T11:10:23.030Z,95493.75
2022-10-31T11:13:07.025Z,95497.88
2022-10-31T11:15:39.247Z,95488.94
2022-10-31T11:18:07.626Z,95493.59
2022-10-31T11:20:37.625Z,95490.31
2022-10-31T11:23:21.077Z,95491.09
2022-10-31T11:25:54.616Z,95480.88
2022-10-31T11:28:22.985Z,95480.72
2022-10-31T11:30:54.382Z,95476.56
2022-10-31T11:33:28.911Z,95477.59
2022-10-31T11:35:58.422Z,95467.25
2022-10-31T11:38:36.493Z,95463.19
2022-10-31T11:41:13.288Z,95460.41
2022-10-31T11:43:42.434Z,95455.28
2022-10-31T11:46:13.188Z,95460.31
2022-10-31T11:48:41.153Z,95457.91
2022-10-31T11:51:09.529Z,95455.81
2022-10-31T11:53:38.732Z,95456.28
2022-10-31T11:56:14.739Z,95453.88
2022-10-31T11:58:44.309Z,95442.69
2022-10-31T12:01:27.094Z,95433.03
2022-10-31T12:04:06.492Z,95425.56
2022-10-31T12:06:37.440Z,95435.59
2022-10-31T12:09:20.199Z,95428.53
2022-10-31T12:11:57.625Z,95419.63
2022-10-31T12:14:35.939Z,95424.78
2022-10-31T12:17:14.336Z,95427.66
2022-10-31T12:19:51.247Z,95425.00
2022-10-31T12:22:28.614Z,95434.47
2022-10-31T12:25:13.552Z,95421.38
2022-10-31T12:28:00.215Z,95424.06
2022-10-31T12:30:33.913Z,95423.91
2022-10-31T12:33:20.639Z,95421.44
2022-10-31T12:35:57.029Z,95419.88
2022-10-31T12:38:52.946Z,95421.59
2022-10-31T12:41:34.694Z,95410.41
2022-10-31T12:44:09.167Z,95413.25
2022-10-31T12:46:56.354Z,95406.22
2022-10-31T12:49:36.566Z,95404.09
2022-10-31T12:52:17.146Z,95397.47
2022-10-31T12:54:59.019Z,95391.00
2022-10-31T12:57:33.846Z,95386.50
2022-10-31T13:00:10.442Z,95381.34
2022-10-31T13:02:44.356Z,95378.78
2022-10-31T13:05:18.254Z,95381.63
2022-10-31T13:07:51.745Z,95376.41
2022-10-31T13:10:24.833Z,95374.50
2022-10-31T13:12:57.726Z,95375.31
2022-10-31T13:15:29.040Z,95373.81
2022-10-31T13:17:59.659Z,95373.00
2022-10-31T13:20:31.808Z,95363.06
2022-10-31T13:23:29.838Z,95357.88
2022-10-31T13:26:03.762Z,95364.50
2022-10-31T13:28:38.184Z,95353.81
2022-10-31T13:31:06.326Z,95353.50
2022-10-31T13:33:39.961Z,95354.03
2022-10-31T13:36:17.845Z,95352.75
2022-10-31T13:38:55.048Z,95354.69
2022-10-31T13:41:35.096Z,95349.31
2022-10-31T13:44:12.475Z,95339.09
2022-10-31T13:49:28.189Z,95340.25
2022-10-31T13:52:08.538Z,95344.81
2022-10-31T13:54:39.029Z,95351.59
2022-10-31T13:57:09.534Z,95340.63
2022-10-31T13:59:40.381Z,95336.50
2022-10-31T14:02:17.436Z,95345.97
2022-10-31T14:04:50.701Z,95338.69
2022-10-31T14:07:22.059Z,95324.53
2022-10-31T14:09:57.505Z,95324.44
2022-10-31T14:12:29.359Z,95335.38
2022-10-31T14:15:04.478Z,95327.31
2022-10-31T14:17:40.773Z,95326.03
2022-10-31T14:20:28.131Z,95324.84
2022-10-31T14:22:56.063Z,95314.53
2022-10-31T14:25:28.647Z,95318.44
2022-10-31T14:27:57.288Z,95308.97
2022-10-31T14:30:28.317Z,95314.34
2022-10-31T14:33:01.052Z,95299.75
2022-10-31T14:35:45.444Z,95307.66
2022-10-31T14:38:41.759Z,95302.31
2022-10-31T14:41:35.743Z,95300.63
2022-10-31T14:44:19.934Z,95302.81
2022-10-31T14:46:58.236Z,95286.53
2022-10-31T14:49:43.221Z,95288.03
2022-10-31T14:52:16.463Z,95291.19
2022-10-31T14:54:48.213Z,95278.03
2022-10-31T14:57:21.233Z,95287.94
2022-10-31T14:59:52.759Z,95287.72
2022-10-31T15:02:26.691Z,95285.72
2022-10-31T15:04:56.561Z,95282.94
2022-10-31T15:07:26.551Z,95269.88
2022-10-31T15:09:59.539Z,95266.34
2022-10-31T15:12:29.612Z,95267.94
2022-10-31T15:14:59.438Z,95270.91
2022-10-31T15:17:30.131Z,95263.41
2022-10-31T15:19:59.512Z,95265.22
2022-10-31T15:22:30.951Z,95265.94
2022-10-31T15:24:59.019Z,95260.38
2022-10-31T15:27:27.284Z,95259.63
2022-10-31T15:29:56.817Z,95255.28
2022-10-31T15:32:26.417Z,95250.88
2022-10-31T15:34:57.635Z,95260.25
2022-10-31T15:37:27.689Z,95252.81
2022-10-31T15:39:55.648Z,95262.50
2022-10-31T15:42:25.835Z,95261.09
2022-10-31T15:44:56.664Z,95266.97
2022-10-31T15:47:25.794Z,95267.03
2022-10-31T15:49:56.728Z,95265.53
2022-10-31T15:52:31.117Z,95252.34
2022-10-31T15:55:02.049Z,95265.38
2022-10-31T15:57:31.270Z,95254.53
2022-10-31T15:59:59.514Z,95251.94
2022-10-31T16:02:29.299Z,95242.59
2022-10-31T16:05:01.495Z,95246.66
2022-10-31T16:07:31.192Z,95248.69
2022-10-31T16:10:01.230Z,95245.22
2022-10-31T16:12:33.996Z,95242.97
2022-10-31T16:15:01.980Z,95254.53
2022-10-31T16:17:30.409Z,95250.41
2022-10-31T16:20:02.295Z,95255.97
2022-10-31T16:22:32.704Z,95249.25
2022-10-31T16:25:06.911Z,95258.75
2022-10-31T16:27:36.811Z,95268.88
2022-10-31T16:30:21.422Z,95258.06
2022-10-31T16:32:58.986Z,95252.63
2022-10-31T16:35:30.431Z,95256.66
2022-10-31T16:37:58.453Z,95257.44
2022-10-31T16:40:27.081Z,95246.06
2022-10-31T16:42:55.216Z,95239.28
2022-10-31T16:45:24.757Z,95244.97
2022-10-31T16:47:53.462Z,95245.25
2022-10-31T16:50:23.298Z,95252.53
2022-10-31T16:53:12.475Z,95251.28
2022-10-31T16:55:45.926Z,95251.81
2022-10-31T16:58:21.043Z,95241.44
2022-10-31T17:00:49.093Z,95246.50
2022-10-31T17:03:17.010Z,95248.81
2022-10-31T17:05:45.042Z,95252.47
2022-10-31T17:08:14.529Z,95254.75
2022-10-31T17:10:44.599Z,95244.09
2022-10-31T17:13:20.466Z,95250.09
2022-10-31T17:15:51.534Z,95252.53
2022-10-31T17:18:25.910Z,95241.44
2022-10-31T17:20:59.567Z,95251.66
2022-10-31T17:23:29.229Z,95244.44
2022-10-31T17:25:57.293Z,95240.53
2022-10-31T17:28:26.440Z,95236.41
2022-10-31T17:30:55.587Z,95241.88
2022-10-31T17:33:23.507Z,95238.38
2022-10-31T17:35:51.708Z,95246.59
2022-10-31T17:38:19.551Z,95239.41
2022-10-31T17:43:21.674Z,95236.34
2022-10-31T17:45:49.547Z,95227.84
2022-10-31T17:48:17.416Z,95227.47
2022-10-31T17:50:45.261Z,95230.47
2022-10-31T17:53:13.245Z,95232.28
2022-10-31T17:55:41.103Z,95230.28
2022-10-31T17:58:12.302Z,95231.03
2022-10-31T18:00:41.531Z,95222.16
2022-10-31T18:03:10.425Z,95237.97
2022-10-31T18:05:38.315Z,95232.03
2022-10-31T18:08:06.747Z,95224.31
2022-10-31T18:10:34.589Z,95218.41
2022-10-31T18:13:02.559Z,95222.00
2022-10-31T18:15:32.101Z,95225.78
2022-10-31T18:18:00.332Z,95231.19
2022-10-31T18:20:28.466Z,95229.44
2022-10-31T18:22:59.512Z,95220.94
2022-10-31T18:25:27.401Z,95218.94
2022-10-31T18:27:55.368Z,95225.09
2022-10-31T18:30:23.512Z,95214.63
2022-10-31T18:32:56.355Z,95215.88
2022-10-31T18:35:24.295Z,95221.50
2022-10-31T18:37:52.444Z,95222.06
2022-10-31T18:40:20.390Z,95221.09
2022-10-31T18:42:48.557Z,95216.53
2022-10-31T18:45:32.468Z,95212.19
2022-10-31T18:48:06.309Z,95212.00
2022-10-31T18:50:34.279Z,95200.38
2022-10-31T18:53:02.399Z,95199.56
2022-10-31T18:55:33.020Z,95207.06
2022-10-31T18:58:00.850Z,95218.16
2022-10-31T19:00:28.671Z,95208.84
2022-10-31T19:02:56.746Z,95210.03
2022-10-31T19:05:26.022Z,95207.91
2022-10-31T19:07:53.901Z,95202.94
2022-10-31T19:10:21.862Z,95204.50
2022-10-31T19:12:50.037Z,95205.50
2022-10-31T19:15:17.907Z,95212.63
2022-10-31T19:17:48.301Z,95217.00
2022-10-31T19:20:16.420Z,95210.69
2022-10-31T19:22:45.748Z,95220.97
2022-10-31T19:25:13.656Z,95212.88
2022-10-31T19:27:41.603Z,95215.81
2022-10-31T19:30:10.693Z,95211.66
2022-10-31T19:32:38.976Z,95209.69
2022-10-31T19:35:09.101Z,95207.31
2022-10-31T19:37:37.166Z,95203.97
2022-10-31T19:40:09.788Z,95205.56
2022-10-31T19:42:37.661Z,95213.84
2022-10-31T19:45:06.227Z,95210.09
2022-10-31T19:47:34.696Z,95212.44
2022-10-31T19:50:04.908Z,95218.19
2022-10-31T19:52:35.013Z,95218.19
2022-10-31T19:55:03.085Z,95208.50
2022-10-31T19:58:01.409Z,95213.25
2022-10-31T20:00:22.431Z,95209.50
2022-10-31T20:02:50.296Z,95206.75
2022-10-31T20:05:18.228Z,95211.66
2022-10-31T20:07:46.136Z,95206.53
2022-10-31T20:10:13.969Z,95216.81
2022-10-31T20:12:43.211Z,95203.97
2022-10-31T20:15:11.552Z,95215.22
2022-10-31T20:17:39.503Z,95213.03
2022-10-31T20:20:09.617Z,95204.13
2022-10-31T20:22:37.700Z,95210.66
2022-10-31T20:25:06.841Z,95205.91
2022-10-31T20:27:34.867Z,95211.44
2022-10-31T20:30:04.624Z,95206.09
2022-10-31T20:32:32.454Z,95205.69
2022-10-31T20:35:00.337Z,95207.69
2022-10-31T20:37:28.170Z,95210.06
2022-10-31T20:39:56.711Z,95212.66
2022-10-31T20:42:24.894Z,95209.44
2022-10-31T20:44:54.209Z,95218.53
2022-10-31T20:47:25.910Z,95207.69
2022-10-31T20:49:54.002Z,95208.28
2022-10-31T20:52:21.870Z,95212.03
2022-10-31T20:54:49.957Z,95213.00
2022-10-31T20:57:18.075Z,95211.00
2022-10-31T20:59:46.206Z,95254.22
2022-10-31T21:02:14.432Z,95217.72
2022-10-31T21:04:43.822Z,95216.91
2022-10-31T21:07:11.714Z,95220.06
2022-10-31T21:09:39.681Z,95220.88
2022-10-31T21:12:07.971Z,95218.28
2022-10-31T21:14:36.560Z,95213.59
2022-10-31T21:17:04.730Z,95213.59
2022-10-31T21:19:33.388Z,95204.91
2022-10-31T21:22:02.722Z,95214.56
2022-10-31T21:24:30.822Z,95212.22
2022-10-31T21:26:58.834Z,95217.34
2022-10-31T21:29:26.729Z,95215.38
2022-10-31T21:31:54.620Z,95202.75
2022-10-31T21:34:22.553Z,95209.25
2022-10-31T21:36:50.421Z,95208.47
2022-10-31T21:39:19.831Z,95207.69
2022-10-31T21:41:47.690Z,95206.66
2022-10-31T21:44:15.536Z,95210.41
2022-10-31T21:46:44.339Z,95201.34
2022-10-31T21:49:12.436Z,95207.28
2022-10-31T21:51:40.941Z,95197.59
2022-10-31T21:54:33.246Z,95204.69
2022-10-31T21:57:03.337Z,95201.75
2022-10-31T21:59:32.054Z,95206.09
2022-10-31T22:02:01.431Z,95200.97
2022-10-31T22:04:29.957Z,95192.28
2022-10-31T22:06:57.933Z,95195.06
2022-10-31T22:09:26.761Z,95181.94
2022-10-31T22:11:54.664Z,95190.69
2022-10-31T22:14:24.036Z,95209.06
2022-10-31T22:16:51.946Z,95200.09
2022-10-31T22:19:19.802Z,95200.41
2022-10-31T22:21:48.960Z,95199.97
2022-10-31T22:24:18.428Z,95206.31
2022-10-31T22:26:46.401Z,95203.94
2022-10-31T22:29:17.168Z,95210.72
2022-10-31T22:31:50.703Z,95200.19
2022-10-31T22:34:21.401Z,95194.28
2022-10-31T22:36:49.264Z,95188.97
2022-10-31T22:39:17.240Z,95187.41
2022-10-31T22:41:45.159Z,95180.66
2022-10-31T22:44:13.025Z,95175.75
2022-10-31T22:46:40.946Z,95178.50
2022-10-31T22:49:13.993Z,95176.50
2022-10-31T22:51:43.038Z,95179.09
2022-10-31T22:54:13.965Z,95194.19
2022-10-31T22:56:41.841Z,95195.91
2022-10-31T22:59:13.044Z,95211.34
2022-10-31T23:01:41.065Z,95215.63
2022-10-31T23:06:40.275Z,95216.00
2022-10-31T23:09:09.142Z,95216.50
2022-10-31T23:11:39.621Z,95208.75
2022-10-31T23:14:10.257Z,95213.66
2022-10-31T23:16:41.955Z,95214.19
2022-10-31T23:19:13.617Z,95213.84
2022-10-31T23:22:00.006Z,95208.81
2022-10-31T23:24:30.904Z,95217.03
2022-10-31T23:27:10.580Z,95218.34
2022-10-31T23:29:44.808Z,95224.88
2022-10-31T23:32:17.255Z,95218.69
2022-10-31T23:34:47.092Z,95212.09
2022-10-31T23:37:16.577Z,95206.91
2022-10-31T23:39:45.024Z,95215.34
2022-10-31T23:42:13.810Z,95218.78
2022-10-31T23:44:41.807Z,95211.91
2022-10-31T23:47:10.054Z,95210.94
2022-10-31T23:49:38.027Z,95208.81
2022-10-31T23:52:08.031Z,95205.88
2022-10-31T23:54:36.017Z,95206.50
2022-10-31T23:57:04.257Z,95206.84
2022-10-31T23:59:32.850Z,95211.91
